Bordentown, New Jersey
Current Conditions -  °F | °C
As of 5:53 PM on Monday 20 Oct 2014 (Local Time) from KTTN Reporting Station
Clear Clear  
Wind Chill: 56°   Ceiling: Unl
Heat Index: 56°   Visibility: 10mi
Dew Point: 38°   Wind: 7mph
Humidity: 51%   Direction: 210°SSW
Pressure: 29.97"   Gusts: NA
Location:  40.15°N, 74.71°W
Report Text: KTTN 202153Z 21006KT 10SM CLR 13/03 A2997 RMK AO2 SLP143 T01330033
Loading
Personal Weather Stations






























Interactive Weather Map
Tropical Storm Tracking
New forecast layout! Learn more

10-Day Weather Forecast

Advertisements
Track Severe Weather on mobile